»·PEaware :: N612C KSBD-KEMT

N612C :: KSBD-KEMT

FLIGHT INFORMATION

Flight Status: Arrived
Operator: Privately registered:
United States
More flights under this callsign
Pilot: Don H. (15606)
Aircraft: CESSNA 172 SKYHAWK
(C172)
More flights by this aircraft type
Origin: KSBD San Bernardino Intl
United States
Destination: KEMT El Monte
United States
More flights between these airports :: More routes between these airports
Route: +
File this flight plan on PilotEdge
Remarks: cat7
Altitude:
(Current/Filed)
0ft
Speed:
(Current/Filed)
0kts
Departed: 09-Oct-18 02:49 PM
Arrived: 09-Oct-18 03:35 PM
Distance/Time
Traveled:
40nm/0:46
Distance/Time
To Go:
Arrived

Flight Plot

Page will automatically refresh every two minutes.


Map Options




Map Legend


Flown Route
Filed Route
Departure Airport
Arrival Airport
Navaid (VOR, NDB)
Fix

Horizontal Profiles

Position Reports

Time Latitude Longitude Heading Altitude Ground
Speed
09-Oct-18 14:44 34.102166 -117.224730 93 1161ft 0kts
09-Oct-18 14:45 34.102166 -117.224730 93 1161ft 0kts
09-Oct-18 14:46 34.100803 -117.223562 89 1161ft 2kts
09-Oct-18 14:47 34.101433 -117.219995 111 1161ft 17kts
09-Oct-18 14:48 34.101377 -117.219865 126 1161ft 2kts
09-Oct-18 14:49 34.100744 -117.219717 165 1161ft 0kts
09-Oct-18 14:50 34.099708 -117.220123 241 1161ft 4kts
09-Oct-18 14:51 34.093629 -117.240239 249 1455ft 102kts
09-Oct-18 14:52 34.085791 -117.275208 264 1886ft 111kts
09-Oct-18 14:53 34.088192 -117.311996 278 2235ft 110kts
09-Oct-18 14:54 34.091187 -117.343934 278 2443ft 108kts
09-Oct-18 14:55 34.098517 -117.378368 272 2882ft 105kts
09-Oct-18 14:56 34.098579 -117.413153 269 3321ft 104kts
09-Oct-18 14:57 34.098129 -117.450280 269 3500ft 120kts
09-Oct-18 14:58 34.097468 -117.491374 269 3499ft 122kts
09-Oct-18 14:59 34.096764 -117.530071 269 3499ft 113kts
09-Oct-18 15:00 34.096028 -117.567866 269 3499ft 112kts
09-Oct-18 15:01 34.095296 -117.605301 269 3499ft 111kts
09-Oct-18 15:02 34.094555 -117.642528 268 3499ft 111kts
09-Oct-18 15:03 34.104971 -117.674904 282 3496ft 112kts
09-Oct-18 15:04 34.125621 -117.701969 319 3500ft 111kts
09-Oct-18 15:05 34.149429 -117.726066 319 3499ft 111kts
09-Oct-18 15:10 34.102137 -117.224644 126 1161ft 8kts
09-Oct-18 15:11 34.100958 -117.221947 69 1161ft 16kts
09-Oct-18 15:12 34.100724 -117.219733 161 1161ft 0kts
09-Oct-18 15:13 34.100724 -117.219733 161 1161ft 0kts
09-Oct-18 15:14 34.099176 -117.221620 249 1161ft 55kts
09-Oct-18 15:15 34.094911 -117.254542 282 1614ft 109kts
09-Oct-18 15:16 34.098521 -117.285384 274 1660ft 114kts
09-Oct-18 15:17 34.099645 -117.330525 270 1665ft 115kts
09-Oct-18 15:18 34.099468 -117.361676 269 1848ft 104kts
09-Oct-18 15:19 34.098958 -117.392990 268 2436ft 86kts
09-Oct-18 15:20 34.098309 -117.422707 267 3184ft 92kts
09-Oct-18 15:21 34.097746 -117.458154 269 3501ft 124kts
09-Oct-18 15:22 34.097141 -117.500917 268 3500ft 129kts
09-Oct-18 15:23 34.096314 -117.544073 268 3499ft 129kts
09-Oct-18 15:24 34.095499 -117.587075 269 3498ft 121kts
09-Oct-18 15:25 34.094779 -117.625497 268 3499ft 111kts
09-Oct-18 15:26 34.094034 -117.661939 268 3499ft 110kts
09-Oct-18 15:27 34.093297 -117.698611 268 3499ft 110kts
09-Oct-18 15:28 34.092535 -117.735623 268 3499ft 110kts
09-Oct-18 15:29 34.091760 -117.772491 268 3499ft 110kts
09-Oct-18 15:30 34.090978 -117.809529 268 3499ft 110kts
09-Oct-18 15:31 34.090201 -117.846162 268 3496ft 99kts
09-Oct-18 15:32 34.089372 -117.877558 268 2960ft 119kts
09-Oct-18 15:33 34.090150 -117.918341 267 2054ft 120kts
09-Oct-18 15:34 34.090020 -117.956236 267 1427ft 111kts
09-Oct-18 15:35 34.088749 -117.991892 274 1031ft 104kts
09-Oct-18 15:36 34.093785 -118.023869 266 545ft 83kts
09-Oct-18 15:37 34.083103 -118.036187 118 299ft 6kts
09-Oct-18 15:38 34.083800 -118.035384 29 299ft 11kts
09-Oct-18 15:39 34.085741 -118.033422 22 299ft 1kts
09-Oct-18 15:40 34.085775 -118.033405 21 299ft 0kts
09-Oct-18 15:41 34.085775 -118.033405 21 299ft 0kts
09-Oct-18 15:42 34.085775 -118.033405 21 299ft 0kts
09-Oct-18 15:43 34.085775 -118.033405 21 299ft 0kts
09-Oct-18 15:44 34.085775 -118.033405 21 299ft 0kts
09-Oct-18 15:45 34.085775 -118.033405 21 299ft 0kts
09-Oct-18 15:46 34.085775 -118.033405 21 299ft 0kts
09-Oct-18 15:47 34.085775 -118.033405 21 299ft 0kts
09-Oct-18 15:48 34.085775 -118.033405 21 299ft 0kts
09-Oct-18 15:49 34.085775 -118.033405 21 299ft 0kts
09-Oct-18 15:50 34.085775 -118.033405 21 299ft 0kts
09-Oct-18 15:51 34.085775 -118.033405 21 299ft 0kts

Navigation Log

Ident Type
1. KSBD Airport
2. KEMT Airport